Time,TemperatureF,DewpointF,PressureIn,WindDirection,WindDirectionDegrees,WindSpeedMPH,WindSpeedGustMPH,Humidity,HourlyPrecipIn,Conditions,Clouds,dailyrainin,SoftwareType,DateUTC
2013-06-16 00:52:00,37.0,35.0,-100.00,North,353,2.0,5.0,93,0.00,,,0.00,,2013-06-16 06:52:00,
2013-06-16 01:53:00,34.0,32.0,-100.00,NNW,345,1.0,2.0,92,0.00,,,0.00,,2013-06-16 07:53:00,
2013-06-16 04:12:00,30.0,29.0,-100.00,North,351,2.0,4.0,96,0.00,,,0.00,,2013-06-16 10:12:00,
2013-06-16 04:22:00,30.0,29.0,-100.00,North,351,2.0,4.0,96,0.00,,,0.00,,2013-06-16 10:22:00,
2013-06-16 05:11:00,30.0,29.0,-100.00,NW,308,1.0,2.0,97,0.00,,,0.00,,2013-06-16 11:11:00,
2013-06-16 05:22:00,30.0,29.0,-100.00,NW,308,1.0,2.0,97,0.00,,,0.00,,2013-06-16 11:22:00,
2013-06-16 05:52:00,30.0,29.0,-100.00,NW,308,1.0,2.0,97,0.00,,,0.00,,2013-06-16 11:52:00,
2013-06-16 06:11:00,29.0,29.0,-100.00,NW,314,2.0,2.0,98,0.00,,,0.00,,2013-06-16 12:11:00,
2013-06-16 06:22:00,29.0,29.0,-100.00,NW,314,2.0,2.0,98,0.00,,,0.00,,2013-06-16 12:22:00,
2013-06-16 07:22:00,38.0,31.0,-100.00,North,355,2.0,5.0,75,0.00,,,0.00,,2013-06-16 13:22:00,
2013-06-16 07:34:00,38.0,31.0,-100.00,North,355,2.0,5.0,75,0.00,,,0.00,,2013-06-16 13:34:00,
2013-06-16 07:42:00,38.0,31.0,-100.00,North,355,2.0,5.0,75,0.00,,,0.00,,2013-06-16 13:42:00,
2013-06-16 07:53:00,38.0,31.0,-100.00,North,355,2.0,5.0,75,0.00,,,0.00,,2013-06-16 13:53:00,
2013-06-16 08:22:00,51.0,32.0,-100.00,NNE,13,5.0,8.0,47,0.00,,,0.00,,2013-06-16 14:22:00,
2013-06-16 08:34:00,51.0,32.0,-100.00,NNE,13,5.0,8.0,47,0.00,,,0.00,,2013-06-16 14:34:00,
2013-06-16 08:43:00,51.0,32.0,-100.00,NNE,13,5.0,8.0,47,0.00,,,0.00,,2013-06-16 14:43:00,
2013-06-16 08:52:00,51.0,32.0,-100.00,NNE,13,5.0,8.0,47,0.00,,,0.00,,2013-06-16 14:52:00,
2013-06-16 09:12:00,59.0,33.0,-100.00,NNE,13,6.0,9.0,38,0.00,,,0.00,,2013-06-16 15:12:00,
2013-06-16 09:22:00,59.0,33.0,-100.00,NNE,13,6.0,9.0,38,0.00,,,0.00,,2013-06-16 15:22:00,
2013-06-16 09:33:00,59.0,33.0,-100.00,NNE,13,6.0,9.0,38,0.00,,,0.00,,2013-06-16 15:33:00,
2013-06-16 09:43:00,59.0,33.0,-100.00,NNE,13,6.0,9.0,38,0.00,,,0.00,,2013-06-16 15:43:00,
2013-06-16 09:52:00,59.0,33.0,-100.00,NNE,13,6.0,9.0,38,0.00,,,0.00,,2013-06-16 15:52:00,
2013-06-16 10:12:00,65.0,32.0,-100.00,NE,43,4.0,6.0,29,0.00,,,0.00,,2013-06-16 16:12:00,
2013-06-16 10:22:00,65.0,32.0,-100.00,NE,43,4.0,6.0,29,0.00,,,0.00,,2013-06-16 16:22:00,
2013-06-16 10:33:00,65.0,32.0,-100.00,NE,43,4.0,6.0,29,0.00,,,0.00,,2013-06-16 16:33:00,
2013-06-16 10:43:00,65.0,32.0,-100.00,NE,43,4.0,6.0,29,0.00,,,0.00,,2013-06-16 16:43:00,
2013-06-16 10:53:00,65.0,32.0,-100.00,NE,43,4.0,6.0,29,0.00,,,0.00,,2013-06-16 16:53:00,
2013-06-16 11:22:00,70.0,30.0,-100.00,SSE,153,5.0,7.0,23,0.00,,,0.00,,2013-06-16 17:22:00,
2013-06-16 11:34:00,70.0,30.0,-100.00,SSE,153,5.0,7.0,23,0.00,,,0.00,,2013-06-16 17:34:00,
2013-06-16 11:43:00,70.0,30.0,-100.00,SSE,153,5.0,7.0,23,0.00,,,0.00,,2013-06-16 17:43:00,
2013-06-16 11:53:00,70.0,30.0,-100.00,SSE,153,5.0,7.0,23,0.00,,,0.00,,2013-06-16 17:53:00,
2013-06-16 12:22:00,72.0,24.0,-100.00,SSW,211,4.0,6.0,17,0.00,,,0.00,,2013-06-16 18:22:00,
2013-06-16 12:33:00,72.0,24.0,-100.00,SSW,211,4.0,6.0,17,0.00,,,0.00,,2013-06-16 18:33:00,
2013-06-16 12:43:00,72.0,24.0,-100.00,SSW,211,4.0,6.0,17,0.00,,,0.00,,2013-06-16 18:43:00,
2013-06-16 12:52:00,72.0,24.0,-100.00,SSW,211,4.0,6.0,17,0.00,,,0.00,,2013-06-16 18:52:00,
2013-06-16 13:11:00,71.0,30.0,-100.00,South,181,7.0,12.0,22,0.00,,,0.00,,2013-06-16 19:11:00,
2013-06-16 13:22:00,71.0,30.0,-100.00,South,181,7.0,12.0,22,0.00,,,0.00,,2013-06-16 19:22:00,
2013-06-16 13:33:00,71.0,30.0,-100.00,South,181,7.0,12.0,22,0.00,,,0.00,,2013-06-16 19:33:00,
2013-06-16 13:43:00,71.0,30.0,-100.00,South,181,7.0,12.0,22,0.00,,,0.00,,2013-06-16 19:43:00,
2013-06-16 13:53:00,71.0,30.0,-100.00,South,181,7.0,12.0,22,0.00,,,0.00,,2013-06-16 19:53:00,
2013-06-16 14:22:00,75.0,28.0,-100.00,SW,226,5.0,8.0,18,0.00,,,0.00,,2013-06-16 20:22:00,
2013-06-16 14:33:00,75.0,28.0,-100.00,SW,226,5.0,8.0,18,0.00,,,0.00,,2013-06-16 20:33:00,
2013-06-16 14:42:00,75.0,28.0,-100.00,SW,226,5.0,8.0,18,0.00,,,0.00,,2013-06-16 20:42:00,
2013-06-16 14:53:00,75.0,28.0,-100.00,SW,226,5.0,8.0,18,0.00,,,0.00,,2013-06-16 20:53:00,
2013-06-16 15:22:00,74.0,33.0,-100.00,WNW,285,6.0,9.0,22,0.00,,,0.00,,2013-06-16 21:22:00,
2013-06-16 15:32:00,74.0,33.0,-100.00,WNW,285,6.0,9.0,22,0.00,,,0.00,,2013-06-16 21:32:00,
2013-06-16 15:42:00,74.0,33.0,-100.00,WNW,285,6.0,9.0,22,0.00,,,0.00,,2013-06-16 21:42:00,
2013-06-16 15:52:00,74.0,33.0,-100.00,WNW,285,6.0,9.0,22,0.00,,,0.00,,2013-06-16 21:52:00,
2013-06-16 16:12:00,74.0,33.0,-100.00,West,281,6.0,9.0,22,0.00,,,0.00,,2013-06-16 22:12:00,
2013-06-16 16:22:00,74.0,33.0,-100.00,West,281,6.0,9.0,22,0.00,,,0.00,,2013-06-16 22:22:00,
2013-06-16 16:32:00,74.0,33.0,-100.00,West,281,6.0,9.0,22,0.00,,,0.00,,2013-06-16 22:32:00,
2013-06-16 16:41:00,74.0,33.0,-100.00,West,281,6.0,9.0,22,0.00,,,0.00,,2013-06-16 22:41:00,
2013-06-16 16:52:00,74.0,33.0,-100.00,West,281,6.0,9.0,22,0.00,,,0.00,,2013-06-16 22:52:00,
2013-06-16 17:11:00,72.0,30.0,-100.00,NW,318,9.0,15.0,21,0.00,,,0.00,,2013-06-16 23:11:00,
2013-06-16 17:22:00,72.0,30.0,-100.00,NW,318,9.0,15.0,21,0.00,,,0.00,,2013-06-16 23:22:00,
2013-06-16 17:32:00,72.0,30.0,-100.00,NW,318,9.0,15.0,21,0.00,,,0.00,,2013-06-16 23:32:00,
2013-06-16 17:42:00,72.0,30.0,-100.00,NW,318,9.0,15.0,21,0.00,,,0.00,,2013-06-16 23:42:00,
2013-06-16 17:51:00,72.0,30.0,-100.00,NW,318,9.0,15.0,21,0.00,,,0.00,,2013-06-16 23:51:00,
2013-06-16 18:11:00,75.0,28.0,-100.00,NW,305,4.0,9.0,18,0.00,,,0.00,,2013-06-17 00:11:00,
2013-06-16 18:22:00,75.0,28.0,-100.00,NW,305,4.0,9.0,18,0.00,,,0.00,,2013-06-17 00:22:00,
2013-06-16 18:32:00,75.0,28.0,-100.00,NW,305,4.0,9.0,18,0.00,,,0.00,,2013-06-17 00:32:00,
2013-06-16 18:42:00,75.0,28.0,-100.00,NW,305,4.0,9.0,18,0.00,,,0.00,,2013-06-17 00:42:00,
2013-06-16 18:52:00,75.0,28.0,-100.00,NW,305,4.0,9.0,18,0.00,,,0.00,,2013-06-17 00:52:00,
2013-06-16 19:11:00,70.0,36.0,-100.00,NNE,21,7.0,12.0,28,0.00,,,0.00,,2013-06-17 01:11:00,
2013-06-16 19:22:00,70.0,36.0,-100.00,NNE,21,7.0,12.0,28,0.00,,,0.00,,2013-06-17 01:22:00,
2013-06-16 19:32:00,70.0,36.0,-100.00,NNE,21,7.0,12.0,28,0.00,,,0.00,,2013-06-17 01:32:00,
2013-06-16 19:43:00,70.0,36.0,-100.00,NNE,21,7.0,12.0,28,0.00,,,0.00,,2013-06-17 01:43:00,
2013-06-16 19:53:00,70.0,36.0,-100.00,NNE,21,7.0,12.0,28,0.00,,,0.00,,2013-06-17 01:53:00,
2013-06-16 20:12:00,64.0,37.0,-100.00,NNE,29,5.0,7.0,37,0.00,,,0.00,,2013-06-17 02:12:00,
2013-06-16 20:22:00,64.0,37.0,-100.00,NNE,29,5.0,7.0,37,0.00,,,0.00,,2013-06-17 02:22:00,
2013-06-16 20:34:00,64.0,37.0,-100.00,NNE,29,5.0,7.0,37,0.00,,,0.00,,2013-06-17 02:34:00,
2013-06-16 20:43:00,64.0,37.0,-100.00,NNE,29,5.0,7.0,37,0.00,,,0.00,,2013-06-17 02:43:00,
2013-06-16 20:53:00,64.0,37.0,-100.00,NNE,29,5.0,7.0,37,0.00,,,0.00,,2013-06-17 02:53:00,
2013-06-16 21:22:00,61.0,36.0,-100.00,ENE,68,5.0,13.0,39,0.00,,,0.00,,2013-06-17 03:22:00,
2013-06-16 21:33:00,61.0,36.0,-100.00,ENE,68,5.0,13.0,39,0.00,,,0.00,,2013-06-17 03:33:00,
2013-06-16 21:44:00,61.0,36.0,-100.00,ENE,68,5.0,13.0,39,0.00,,,0.00,,2013-06-17 03:44:00,
2013-06-16 21:53:00,61.0,36.0,-100.00,ENE,68,5.0,13.0,39,0.00,,,0.00,,2013-06-17 03:53:00,
2013-06-16 22:53:00,54.0,39.0,-100.00,North,2,4.0,5.0,58,0.00,,,0.00,,2013-06-17 04:53:00,
2013-06-16 23:22:00,54.0,37.0,-100.00,North,2,4.0,5.0,52,0.00,,,0.00,,2013-06-17 05:22:00,
2013-06-16 23:33:00,54.0,37.0,-100.00,North,2,4.0,5.0,52,0.00,,,0.00,,2013-06-17 05:33:00,
2013-06-16 23:44:00,54.0,37.0,-100.00,North,2,4.0,5.0,52,0.00,,,0.00,,2013-06-17 05:44:00,
2013-06-16 23:53:00,54.0,37.0,-100.00,North,2,4.0,5.0,52,0.00,,,0.00,,2013-06-17 05:53:00,